Time;durP1;ratioP1;P1;durP2;ratioP2;P2;SDS_P1;SDS_P2;PMS_P1;PMS_P2;Temp;Humidity;BMP_temperature;BMP_pressure;BME280_temperature;BME280_humidity;BME280_pressure;Samples;Min_cycle;Max_cycle;Signal;HPM_P1;HPM_P2
2022/03/17 00:01:42;;;;;;;83.40;39.70;;;0.90;99.90;;;;;;4155822;28;20291;-58
2022/03/17 00:03:45;;;;;;;82.07;40.20;;;0.90;99.90;;;;;;4157179;28;20278;-53
2022/03/17 00:05:46;;;;;;;78.60;37.70;;;0.90;99.90;;;;;;4156787;28;21135;-57
2022/03/17 00:07:47;;;;;;;80.07;38.67;;;0.80;99.90;;;;;;4157283;28;20689;-54
2022/03/17 00:09:48;;;;;;;77.47;37.47;;;0.70;99.90;;;;;;4155466;28;20291;-57
2022/03/17 00:11:51;;;;;;;68.87;33.83;;;0.70;99.90;;;;;;4156420;28;20405;-54
2022/03/17 00:13:52;;;;;;;72.30;35.57;;;0.70;99.90;;;;;;4153720;28;20349;-57
2022/03/17 00:15:53;;;;;;;68.50;33.40;;;0.70;99.90;;;;;;4157206;28;21063;-56
2022/03/17 00:17:54;;;;;;;60.80;31.17;;;0.70;99.90;;;;;;4156168;28;20267;-58
2022/03/17 00:19:55;;;;;;;70.97;36.70;;;0.80;99.90;;;;;;4156131;28;20302;-53
2022/03/17 00:21:57;;;;;;;74.70;38.13;;;0.80;99.90;;;;;;4156319;28;20355;-56
2022/03/17 00:23:58;;;;;;;82.87;41.23;;;0.80;99.90;;;;;;4156086;28;20263;-54
2022/03/17 00:25:59;;;;;;;86.10;42.00;;;0.80;99.90;;;;;;4155999;28;20671;-52
2022/03/17 00:28:00;;;;;;;80.07;39.17;;;0.70;99.90;;;;;;4155709;28;20262;-53
2022/03/17 00:30:03;;;;;;;75.53;34.80;;;0.70;99.90;;;;;;4156896;28;20308;-57
2022/03/17 00:32:06;;;;;;;75.67;37.50;;;0.70;99.90;;;;;;4151515;28;20270;-49
2022/03/17 00:34:08;;;;;;;83.47;37.83;;;0.70;99.90;;;;;;4155972;28;20763;-55
2022/03/17 00:36:10;;;;;;;262.83;47.03;;;0.70;99.90;;;;;;4138074;28;20274;-60
2022/03/17 00:38:16;;;;;;;407.57;55.03;;;0.60;99.90;;;;;;4157461;28;20809;-59
2022/03/17 00:40:17;;;;;;;383.03;50.30;;;0.50;99.90;;;;;;4155996;28;20670;-62
2022/03/17 00:42:20;;;;;;;476.80;53.00;;;0.40;99.90;;;;;;4156594;28;20767;-59
2022/03/17 00:44:21;;;;;;;389.87;52.73;;;0.30;99.90;;;;;;4154669;28;20398;-57
2022/03/17 00:46:22;;;;;;;352.73;48.67;;;0.20;99.90;;;;;;4156342;28;20278;-58
2022/03/17 00:48:23;;;;;;;410.73;51.83;;;0.10;99.90;;;;;;4154884;28;20270;-55
2022/03/17 00:50:25;;;;;;;480.57;54.17;;;0.00;99.90;;;;;;4156114;28;20708;-57
2022/03/17 00:52:26;;;;;;;543.97;53.37;;;-0.10;99.90;;;;;;4155886;28;20336;-50
2022/03/17 00:54:27;;;;;;;611.00;59.93;;;-0.20;99.90;;;;;;4155243;28;20356;-52
2022/03/17 00:56:29;;;;;;;511.07;47.93;;;-0.30;99.90;;;;;;4156264;28;21328;-55
2022/03/17 00:58:30;;;;;;;423.27;45.00;;;-0.40;99.90;;;;;;4154650;28;20295;-53
2022/03/17 01:00:31;;;;;;;581.53;56.63;;;-0.50;99.90;;;;;;4156924;28;20730;-52
2022/03/17 01:02:33;;;;;;;330.37;41.97;;;-0.50;99.90;;;;;;4155292;28;20286;-53
2022/03/17 01:04:35;;;;;;;284.37;42.90;;;-0.60;99.90;;;;;;4159027;28;20295;-51
2022/03/17 01:06:36;;;;;;;363.53;44.93;;;-0.70;99.90;;;;;;4158275;28;20329;-53
2022/03/17 01:08:38;;;;;;;242.00;38.80;;;-0.80;99.90;;;;;;4160132;28;20349;-49
2022/03/17 01:10:42;;;;;;;534.97;57.03;;;-0.80;99.90;;;;;;4158191;28;20279;-56
2022/03/17 01:12:46;;;;;;;380.73;48.57;;;-0.90;99.90;;;;;;4159279;28;20313;-52
2022/03/17 01:14:47;;;;;;;284.93;42.47;;;-0.90;99.90;;;;;;4157128;28;20345;-52
2022/03/17 01:16:50;;;;;;;375.33;46.30;;;-1.00;99.90;;;;;;4159403;28;20694;-54
2022/03/17 01:18:51;;;;;;;254.47;42.40;;;-1.10;99.90;;;;;;4158402;28;20302;-56
2022/03/17 01:20:52;;;;;;;245.27;39.40;;;-1.10;99.90;;;;;;4159688;28;20349;-52
2022/03/17 01:22:53;;;;;;;317.00;48.73;;;-1.10;99.90;;;;;;4158694;28;20251;-51
2022/03/17 01:24:54;;;;;;;331.73;45.50;;;-1.20;99.90;;;;;;4159145;28;20297;-49
2022/03/17 01:26:55;;;;;;;360.37;49.73;;;-1.10;99.90;;;;;;4158870;28;20646;-52
2022/03/17 01:28:56;;;;;;;244.07;40.37;;;-1.10;99.90;;;;;;4157168;28;20333;-54
2022/03/17 01:30:58;;;;;;;269.53;43.47;;;-1.20;99.90;;;;;;4158736;28;20274;-49
2022/03/17 01:32:59;;;;;;;290.40;45.57;;;-1.20;99.90;;;;;;4158143;28;20294;-53
2022/03/17 01:35:00;;;;;;;292.97;47.23;;;-1.20;99.90;;;;;;4160160;28;20357;-58
2022/03/17 01:37:01;;;;;;;230.33;43.37;;;-1.10;99.90;;;;;;4158447;28;20328;-51
2022/03/17 01:39:03;;;;;;;164.93;39.63;;;-1.10;99.90;;;;;;4159566;28;20299;-56
2022/03/17 01:41:04;;;;;;;295.33;43.20;;;-1.10;99.90;;;;;;4157392;28;20286;-52
2022/03/17 01:43:06;;;;;;;320.00;48.63;;;-1.10;99.90;;;;;;4158725;28;20328;-57
2022/03/17 01:45:08;;;;;;;222.33;44.67;;;-1.00;99.90;;;;;;4158221;28;20286;-56
2022/03/17 01:47:28;;;;;;;169.73;38.33;;;-1.00;99.90;;;;;;4158487;28;20283;-54
2022/03/17 01:49:29;;;;;;;129.97;39.30;;;-1.00;99.90;;;;;;4157457;28;20271;-56
2022/03/17 01:51:30;;;;;;;137.30;41.10;;;-1.00;99.90;;;;;;4159675;28;20309;-56
2022/03/17 01:53:32;;;;;;;135.73;38.23;;;-0.90;99.90;;;;;;4158305;28;20329;-54
2022/03/17 01:55:33;;;;;;;106.73;40.00;;;-0.90;99.90;;;;;;4158151;28;20336;-50
2022/03/17 01:57:34;;;;;;;105.80;40.73;;;-0.90;99.90;;;;;;4157936;28;20317;-55
2022/03/17 01:59:37;;;;;;;104.23;39.13;;;-0.90;99.90;;;;;;4158610;28;20294;-61
2022/03/17 02:01:38;;;;;;;116.00;38.27;;;-0.90;99.90;;;;;;4158632;28;20735;-56
2022/03/17 02:03:43;;;;;;;100.87;38.90;;;-0.90;99.90;;;;;;4156942;28;20828;-57
2022/03/17 02:05:44;;;;;;;97.67;39.00;;;-0.90;99.90;;;;;;4158344;28;20686;-54
2022/03/17 02:07:50;;;;;;;113.13;38.63;;;-0.90;99.90;;;;;;4157837;28;20270;-56
2022/03/17 02:09:51;;;;;;;128.37;41.17;;;-0.90;99.90;;;;;;4158538;28;20743;-52
2022/03/17 02:14:14;;;;;;;;;;;-0.90;99.90;;;;;;4159368;28;20341;-61
2022/03/17 02:16:16;;;;;;;160.00;42.87;;;-0.90;99.90;;;;;;4156992;28;19975;-54
2022/03/17 02:18:18;;;;;;;118.60;38.97;;;-0.90;99.90;;;;;;4158740;28;20282;-48
2022/03/17 02:20:20;;;;;;;99.43;37.63;;;-0.90;99.90;;;;;;4157315;28;20813;-54
2022/03/17 02:22:22;;;;;;;84.10;38.20;;;-0.80;99.90;;;;;;4159183;28;20263;-53
2022/03/17 02:26:43;;;;;;;72.30;35.10;;;-0.80;99.90;;;;;;4159254;28;20336;-53
2022/03/17 02:28:46;;;;;;;82.00;35.43;;;-0.80;99.90;;;;;;4157233;28;20778;-53
2022/03/17 02:30:48;;;;;;;80.70;36.60;;;-0.80;99.90;;;;;;4157787;28;20348;-53
2022/03/17 02:32:58;;;;;;;75.73;35.37;;;-0.80;99.90;;;;;;4157360;28;20674;-54
2022/03/17 02:35:03;;;;;;;76.27;36.93;;;-0.70;99.90;;;;;;4157213;28;20278;-55
2022/03/17 02:37:05;;;;;;;76.60;35.57;;;-0.70;99.90;;;;;;4157578;28;20274;-57
2022/03/17 02:39:06;;;;;;;79.33;37.57;;;-0.70;99.90;;;;;;4158424;28;20759;-54
2022/03/17 02:41:07;;;;;;;81.40;38.00;;;-0.70;99.90;;;;;;4157060;28;20707;-53
2022/03/17 02:43:09;;;;;;;77.43;36.53;;;-0.70;99.90;;;;;;4158018;28;20763;-57
2022/03/17 02:45:11;;;;;;;84.67;38.60;;;-0.70;99.90;;;;;;4158251;28;20266;-58
2022/03/17 02:47:13;;;;;;;86.00;38.83;;;-0.70;99.90;;;;;;4157318;28;20274;-53
2022/03/17 02:49:15;;;;;;;92.10;40.80;;;-0.70;99.90;;;;;;4138603;28;20579;-55
2022/03/17 02:51:17;;;;;;;83.60;40.33;;;-0.70;99.90;;;;;;4157577;28;20333;-50
2022/03/17 02:53:18;;;;;;;89.60;39.93;;;-0.70;99.90;;;;;;4158156;28;20250;-55
2022/03/17 02:55:19;;;;;;;86.27;39.13;;;-0.70;99.90;;;;;;4156667;28;20302;-54
2022/03/17 02:57:21;;;;;;;83.03;38.77;;;-0.70;99.90;;;;;;4157803;28;20262;-53
2022/03/17 02:59:22;;;;;;;76.70;37.60;;;-0.70;99.90;;;;;;4157033;28;20621;-54
2022/03/17 03:01:23;;;;;;;85.03;37.33;;;-0.70;99.90;;;;;;4157279;28;20283;-54
2022/03/17 03:03:24;;;;;;;78.73;36.00;;;-0.70;99.90;;;;;;4156743;28;20794;-52
2022/03/17 03:05:26;;;;;;;76.17;37.67;;;-0.70;99.90;;;;;;4158868;28;20275;-56
2022/03/17 03:07:27;;;;;;;77.40;37.33;;;-0.70;99.90;;;;;;4156047;28;20317;-54
2022/03/17 03:09:29;;;;;;;74.23;37.63;;;-0.70;99.90;;;;;;4156977;28;20329;-54
2022/03/17 03:11:30;;;;;;;70.60;35.90;;;-0.70;99.90;;;;;;4156245;28;20341;-53
2022/03/17 03:13:31;;;;;;;72.03;36.67;;;-0.70;99.90;;;;;;4157158;28;20287;-52
2022/03/17 03:15:33;;;;;;;78.90;36.73;;;-0.70;99.90;;;;;;4156813;28;20275;-59
2022/03/17 03:17:35;;;;;;;85.03;37.63;;;-0.60;99.90;;;;;;4157347;28;20335;-52
2022/03/17 03:19:36;;;;;;;80.90;37.87;;;-0.60;99.90;;;;;;4146709;28;21090;-56
2022/03/17 03:21:38;;;;;;;85.53;38.33;;;-0.60;99.90;;;;;;4156536;28;20322;-54
2022/03/17 03:23:39;;;;;;;76.53;37.33;;;-0.60;99.90;;;;;;4157250;28;20270;-57
2022/03/17 03:25:40;;;;;;;75.13;38.00;;;-0.60;99.90;;;;;;4156300;28;20333;-56
2022/03/17 03:27:44;;;;;;;76.40;35.97;;;-0.60;99.90;;;;;;4157577;28;20274;-54
2022/03/17 03:29:46;;;;;;;78.30;36.87;;;-0.60;99.90;;;;;;4156646;28;20357;-59
2022/03/17 03:31:52;;;;;;;78.33;36.57;;;-0.60;99.90;;;;;;4157468;28;20678;-50
2022/03/17 03:33:53;;;;;;;73.00;36.90;;;-0.60;99.90;;;;;;4142081;28;20793;-48
2022/03/17 03:38:14;;;;;;;83.30;36.07;;;-0.70;99.90;;;;;;4156002;28;20829;-55
2022/03/17 03:40:15;;;;;;;74.60;36.27;;;-0.80;99.90;;;;;;4157683;28;20298;-52
2022/03/17 03:42:17;;;;;;;76.37;37.73;;;-0.70;99.90;;;;;;4156379;28;20737;-53
2022/03/17 03:44:18;;;;;;;69.30;34.40;;;-0.70;99.90;;;;;;4156557;28;20612;-57
2022/03/17 03:46:20;;;;;;;68.03;34.77;;;-0.70;99.90;;;;;;4155460;28;20344;-52
2022/03/17 03:48:22;;;;;;;75.43;34.97;;;-0.70;99.90;;;;;;4156571;28;20283;-55
2022/03/17 03:50:25;;;;;;;70.87;35.33;;;-0.70;99.90;;;;;;4155394;28;20421;-59
2022/03/17 03:52:26;;;;;;;63.23;32.90;;;-0.70;99.90;;;;;;4157340;28;20275;-54
2022/03/17 03:54:27;;;;;;;70.63;35.60;;;-0.70;99.90;;;;;;4155852;28;20333;-57
2022/03/17 03:56:29;;;;;;;65.33;33.87;;;-0.70;99.90;;;;;;4156810;28;20283;-56
2022/03/17 03:58:30;;;;;;;67.50;34.30;;;-0.70;99.90;;;;;;4156613;28;20271;-57
2022/03/17 04:00:32;;;;;;;71.53;34.43;;;-0.70;99.90;;;;;;4154725;28;20635;-56
2022/03/17 04:02:33;;;;;;;70.93;34.73;;;-0.70;99.90;;;;;;4157483;28;20274;-59
2022/03/17 04:04:36;;;;;;;72.80;34.93;;;-0.70;99.90;;;;;;4155758;28;20274;-52
2022/03/17 04:06:41;;;;;;;73.27;34.77;;;-0.80;99.90;;;;;;4157722;28;20267;-53
2022/03/17 04:08:44;;;;;;;66.77;33.87;;;-0.80;99.90;;;;;;4155526;28;20725;-53
2022/03/17 04:10:45;;;;;;;77.70;38.40;;;-0.80;99.90;;;;;;4157128;28;20674;-49
2022/03/17 04:12:46;;;;;;;79.00;36.63;;;-0.90;99.90;;;;;;4155327;28;20737;-56
2022/03/17 04:14:47;;;;;;;73.37;36.33;;;-0.90;99.90;;;;;;4156319;28;20282;-58
2022/03/17 04:16:49;;;;;;;70.30;36.40;;;-0.90;99.90;;;;;;4155974;28;20340;-53
2022/03/17 04:18:51;;;;;;;81.37;38.67;;;-0.90;99.90;;;;;;4156515;28;20295;-49
2022/03/17 04:20:52;;;;;;;74.37;37.50;;;-0.90;99.90;;;;;;4155560;28;20294;-55
2022/03/17 04:22:53;;;;;;;76.67;37.07;;;-1.00;99.90;;;;;;4156583;28;20314;-58
2022/03/17 04:24:55;;;;;;;86.00;39.93;;;-1.00;99.90;;;;;;4155496;28;20259;-53
2022/03/17 04:26:56;;;;;;;79.70;40.73;;;-1.00;99.90;;;;;;4156822;28;20408;-59
2022/03/17 04:28:57;;;;;;;87.87;43.47;;;-1.00;99.90;;;;;;4156700;28;20304;-62
2022/03/17 04:30:59;;;;;;;96.33;47.50;;;-1.00;99.90;;;;;;4156546;28;20255;-60
2022/03/17 04:33:00;;;;;;;97.27;48.27;;;-1.00;99.90;;;;;;4156778;28;20250;-56
2022/03/17 04:35:01;;;;;;;102.33;48.80;;;-1.00;99.90;;;;;;4155831;28;20325;-54
2022/03/17 04:37:04;;;;;;;93.73;46.83;;;-0.90;99.90;;;;;;4156762;28;20640;-57
2022/03/17 04:39:06;;;;;;;92.47;46.63;;;-0.90;99.90;;;;;;4156133;28;20681;-57
2022/03/17 04:41:09;;;;;;;91.53;47.00;;;-1.00;99.90;;;;;;4153233;28;20747;-61
2022/03/17 04:43:12;;;;;;;96.57;50.17;;;-0.90;99.90;;;;;;4142419;28;20310;-52
2022/03/17 04:45:13;;;;;;;103.60;50.50;;;-0.90;99.90;;;;;;4159812;28;20793;-54
2022/03/17 04:47:15;;;;;;;98.00;50.03;;;-0.90;99.90;;;;;;4158854;28;20255;-55
2022/03/17 04:49:16;;;;;;;98.10;48.07;;;-0.90;99.90;;;;;;4160209;28;20740;-53
2022/03/17 04:51:18;;;;;;;96.10;45.60;;;-0.80;99.90;;;;;;4152350;28;20853;-57
2022/03/17 04:53:29;;;;;;;91.57;46.70;;;-0.80;99.90;;;;;;4157592;28;20824;-54
2022/03/17 04:55:30;;;;;;;91.30;44.07;;;-0.80;99.90;;;;;;4156974;28;20264;-55
2022/03/17 04:57:32;;;;;;;80.90;41.53;;;-0.80;99.90;;;;;;4158357;28;20271;-55
2022/03/17 04:59:33;;;;;;;76.33;38.47;;;-0.80;99.90;;;;;;4157072;28;20298;-54
2022/03/17 05:01:34;;;;;;;80.50;37.90;;;-0.80;99.90;;;;;;4158324;28;20984;-55
2022/03/17 05:03:36;;;;;;;73.00;36.93;;;-0.80;99.90;;;;;;4157711;28;20683;-54
2022/03/17 05:05:38;;;;;;;69.27;35.07;;;-0.80;99.90;;;;;;4159543;28;20282;-56
2022/03/17 05:07:39;;;;;;;72.43;36.83;;;-0.80;99.90;;;;;;4159062;28;20267;-56
2022/03/17 05:09:40;;;;;;;69.37;36.40;;;-0.80;99.90;;;;;;4158397;28;20923;-57
2022/03/17 05:11:41;;;;;;;74.40;36.57;;;-0.80;99.90;;;;;;4159556;28;20329;-54
2022/03/17 05:13:43;;;;;;;71.93;35.67;;;-0.80;99.90;;;;;;4157249;28;20697;-54
2022/03/17 05:15:44;;;;;;;67.40;34.87;;;-0.80;99.90;;;;;;4160019;28;20297;-53
2022/03/17 05:17:47;;;;;;;71.97;34.93;;;-0.80;99.90;;;;;;4140382;28;20279;-51
2022/03/17 05:19:48;;;;;;;70.33;34.27;;;-0.80;99.90;;;;;;4159020;28;20298;-56
2022/03/17 05:21:49;;;;;;;69.77;35.80;;;-0.80;99.90;;;;;;4157187;28;20662;-56
2022/03/17 05:23:50;;;;;;;68.10;34.40;;;-0.80;99.90;;;;;;4158605;28;20397;-55
2022/03/17 05:25:52;;;;;;;71.33;36.77;;;-0.80;99.90;;;;;;4157567;28;20269;-52
2022/03/17 05:27:53;;;;;;;68.27;36.97;;;-0.80;99.90;;;;;;4158169;28;20313;-51
2022/03/17 05:29:54;;;;;;;75.33;37.17;;;-0.80;99.90;;;;;;4156730;28;20316;-55
2022/03/17 05:31:55;;;;;;;74.20;36.60;;;-0.80;99.90;;;;;;4158150;28;20275;-56
2022/03/17 05:33:56;;;;;;;67.70;36.37;;;-0.70;99.90;;;;;;4157558;28;21382;-60
2022/03/17 05:35:58;;;;;;;73.87;37.13;;;-0.80;99.90;;;;;;4158581;28;20274;-54
2022/03/17 05:38:03;;;;;;;65.43;35.07;;;-0.80;99.90;;;;;;4158315;28;20666;-54
2022/03/17 05:40:06;;;;;;;74.47;38.57;;;-0.70;99.90;;;;;;4157781;28;20329;-57
2022/03/17 05:42:07;;;;;;;79.37;40.83;;;-0.70;99.90;;;;;;4158647;28;20289;-55
2022/03/17 05:44:08;;;;;;;74.13;36.37;;;-0.60;99.90;;;;;;4152867;28;20317;-58
2022/03/17 05:46:10;;;;;;;71.37;38.27;;;-0.60;99.90;;;;;;4158437;28;20274;-54
2022/03/17 05:48:11;;;;;;;71.53;36.30;;;-0.60;99.90;;;;;;4152958;28;20336;-53
2022/03/17 05:50:15;;;;;;;67.40;36.83;;;-0.50;99.90;;;;;;4157665;28;20915;-54
2022/03/17 05:52:16;;;;;;;65.93;35.37;;;-0.50;99.90;;;;;;4157248;28;20338;-56
2022/03/17 05:54:17;;;;;;;74.03;35.77;;;-0.50;99.90;;;;;;4158344;28;20278;-54
2022/03/17 05:56:18;;;;;;;68.90;35.03;;;-0.40;99.90;;;;;;4157999;28;20712;-57
2022/03/17 05:58:19;;;;;;;68.50;36.93;;;-0.40;99.90;;;;;;4158101;28;20305;-57
2022/03/17 06:00:24;;;;;;;68.53;34.33;;;-0.30;99.90;;;;;;4156751;28;20392;-53
2022/03/17 06:02:25;;;;;;;81.30;38.90;;;-0.30;99.90;;;;;;4158182;28;20366;-56
2022/03/17 06:04:26;;;;;;;70.10;36.17;;;-0.20;99.90;;;;;;4162942;28;20287;-55
2022/03/17 06:06:27;;;;;;;77.83;39.93;;;-0.20;99.90;;;;;;4158422;28;20921;-55
2022/03/17 06:08:28;;;;;;;84.17;41.70;;;-0.20;99.90;;;;;;4156579;28;20670;-54
2022/03/17 06:10:34;;;;;;;80.50;42.20;;;-0.20;99.90;;;;;;4156247;28;20283;-54
2022/03/17 06:12:36;;;;;;;81.93;40.13;;;-0.20;99.90;;;;;;4157701;28;20271;-57
2022/03/17 06:14:37;;;;;;;78.57;40.43;;;-0.20;99.90;;;;;;4156136;28;20294;-59
2022/03/17 06:16:38;;;;;;;77.37;39.57;;;-0.20;99.90;;;;;;4158387;28;20266;-59
2022/03/17 06:18:42;;;;;;;78.87;39.67;;;-0.20;99.90;;;;;;4156477;28;20694;-55
2022/03/17 06:20:44;;;;;;;72.97;39.57;;;-0.30;99.90;;;;;;4157571;28;20371;-60
2022/03/17 06:22:47;;;;;;;69.63;39.23;;;-0.20;99.90;;;;;;4156968;28;20638;-53
2022/03/17 06:24:48;;;;;;;69.27;37.03;;;-0.20;99.90;;;;;;4158394;28;20275;-57
2022/03/17 06:26:50;;;;;;;68.33;35.93;;;-0.20;99.90;;;;;;4157188;28;21041;-56
2022/03/17 06:28:51;;;;;;;64.23;35.27;;;-0.20;99.90;;;;;;4157865;28;20267;-58
2022/03/17 06:30:54;;;;;;;65.80;34.60;;;-0.20;99.90;;;;;;4157697;28;20262;-54
2022/03/17 06:32:55;;;;;;;72.63;38.37;;;-0.20;99.90;;;;;;4157578;28;20678;-55
2022/03/17 06:34:56;;;;;;;71.30;36.87;;;-0.10;99.90;;;;;;4157159;28;20262;-55
2022/03/17 06:36:57;;;;;;;65.23;35.80;;;-0.10;99.90;;;;;;4157820;28;20263;-57
2022/03/17 06:38:58;;;;;;;71.63;37.40;;;-0.10;99.90;;;;;;4156949;28;20263;-57
2022/03/17 06:40:59;;;;;;;78.63;39.87;;;0.00;99.90;;;;;;4156889;28;20303;-56
2022/03/17 06:43:04;;;;;;;74.87;40.37;;;0.00;99.90;;;;;;4156778;28;20270;-57
2022/03/17 06:45:06;;;;;;;70.53;39.63;;;0.10;99.90;;;;;;4157226;28;20327;-56
2022/03/17 06:47:07;;;;;;;75.97;42.43;;;0.20;99.90;;;;;;4158053;28;20746;-55
2022/03/17 06:49:08;;;;;;;84.17;43.40;;;0.30;99.90;;;;;;4157089;28;20751;-57
2022/03/17 06:51:09;;;;;;;79.80;41.80;;;0.40;99.90;;;;;;4158042;28;20270;-56
2022/03/17 06:53:10;;;;;;;75.33;41.30;;;0.60;99.90;;;;;;4156091;28;20730;-58
2022/03/17 06:55:12;;;;;;;70.63;37.70;;;0.70;99.90;;;;;;4157560;28;20337;-57
2022/03/17 06:57:17;;;;;;;66.27;35.33;;;0.70;99.90;;;;;;4156925;28;20308;-57
2022/03/17 06:59:19;;;;;;;65.43;36.67;;;0.70;99.90;;;;;;4156431;28;20283;-59
2022/03/17 07:01:20;;;;;;;69.77;36.57;;;0.80;99.90;;;;;;4154991;28;20282;-57
2022/03/17 07:03:21;;;;;;;61.90;32.30;;;0.80;99.90;;;;;;4158136;28;20289;-57
2022/03/17 07:05:22;;;;;;;61.20;33.53;;;0.80;99.90;;;;;;4156035;28;20278;-55
2022/03/17 07:07:23;;;;;;;60.00;32.43;;;0.90;99.90;;;;;;4158356;28;20320;-59
2022/03/17 07:09:24;;;;;;;70.10;34.03;;;0.90;99.90;;;;;;4156949;28;20243;-55
2022/03/17 07:11:26;;;;;;;70.67;35.63;;;0.90;99.90;;;;;;4156718;28;20677;-56
2022/03/17 07:13:27;;;;;;;66.07;34.73;;;0.90;99.90;;;;;;4157160;28;20287;-57
2022/03/17 07:15:29;;;;;;;65.77;33.63;;;1.00;99.90;;;;;;4156546;28;20332;-57
2022/03/17 07:17:39;;;;;;;64.40;31.50;;;1.10;99.90;;;;;;4157219;28;20354;-58
2022/03/17 07:19:41;;;;;;;55.17;27.35;;;1.20;99.90;;;;;;4155905;28;20341;-55
2022/03/17 07:21:42;;;;;;;55.30;27.40;;;1.10;99.90;;;;;;4156665;28;20105;-55
2022/03/17 07:23:43;;;;;;;55.63;27.97;;;1.20;99.90;;;;;;4156012;28;20278;-59
2022/03/17 07:25:44;;;;;;;58.40;29.90;;;1.30;99.90;;;;;;4157487;28;20673;-58
2022/03/17 07:27:47;;;;;;;53.23;28.07;;;1.40;99.90;;;;;;4156597;28;20650;-57
2022/03/17 07:29:49;;;;;;;56.70;28.23;;;1.50;99.90;;;;;;4156712;28;20255;-58
2022/03/17 07:31:54;;;;;;;57.83;27.67;;;1.50;99.90;;;;;;4156169;28;20266;-56
2022/03/17 07:33:56;;;;;;;51.10;26.73;;;1.60;99.90;;;;;;4139171;28;20330;-55
2022/03/17 07:35:57;;;;;;;50.00;24.43;;;1.60;99.90;;;;;;4156200;28;20278;-55
2022/03/17 07:37:59;;;;;;;49.53;25.57;;;1.70;99.90;;;;;;4157761;28;20267;-56
2022/03/17 07:40:01;;;;;;;52.20;27.13;;;1.70;99.90;;;;;;4155252;28;20356;-60
2022/03/17 07:42:04;;;;;;;52.03;28.03;;;1.70;99.90;;;;;;4157505;28;20263;-58
2022/03/17 07:44:05;;;;;;;55.27;28.60;;;1.90;99.90;;;;;;4155086;28;20271;-58
2022/03/17 07:46:07;;;;;;;46.20;26.57;;;2.00;99.90;;;;;;4157133;28;20274;-59
2022/03/17 07:48:08;;;;;;;49.20;25.53;;;2.20;99.90;;;;;;4155221;28;20266;-62
2022/03/17 07:50:10;;;;;;;45.10;24.40;;;2.40;99.90;;;;;;4156487;28;20274;-57
2022/03/17 07:52:11;;;;;;;42.10;24.20;;;2.50;99.90;;;;;;4155553;28;20286;-62
2022/03/17 07:54:12;;;;;;;44.97;24.10;;;2.80;99.90;;;;;;4155799;28;20340;-63
2022/03/17 07:56:14;;;;;;;48.27;25.03;;;3.00;99.90;;;;;;4157058;28;20314;-59
2022/03/17 07:58:15;;;;;;;48.27;24.57;;;3.10;99.90;;;;;;4154567;28;20325;-56
2022/03/17 08:00:17;;;;;;;49.93;26.93;;;3.30;99.90;;;;;;4156494;28;20384;-54
2022/03/17 08:02:19;;;;;;;52.00;26.83;;;3.50;99.90;;;;;;4156002;28;20612;-58
2022/03/17 08:04:20;;;;;;;47.10;26.07;;;3.70;99.90;;;;;;4157593;28;20267;-57
2022/03/17 08:06:22;;;;;;;52.00;26.37;;;3.50;99.90;;;;;;4138769;28;20272;-56
2022/03/17 08:08:23;;;;;;;51.43;27.57;;;3.40;99.90;;;;;;4157372;28;20267;-56
2022/03/17 08:10:24;;;;;;;50.93;26.40;;;3.60;99.90;;;;;;4156362;28;20320;-57
2022/03/17 08:12:31;;;;;;;49.00;25.63;;;3.90;99.90;;;;;;4156319;28;20390;-57
2022/03/17 08:14:32;;;;;;;54.80;25.27;;;4.10;99.90;;;;;;4155961;28;20286;-58
2022/03/17 08:16:34;;;;;;;45.07;23.03;;;4.30;99.90;;;;;;4156315;28;20686;-58
2022/03/17 08:18:35;;;;;;;41.10;22.53;;;4.40;99.90;;;;;;4156109;28;20263;-58
2022/03/17 08:20:38;;;;;;;47.47;23.03;;;4.60;99.90;;;;;;4155956;28;20368;-59
2022/03/17 08:22:41;;;;;;;44.43;23.43;;;4.70;99.90;;;;;;4156423;28;20731;-53
2022/03/17 08:24:42;;;;;;;51.97;24.17;;;4.60;99.90;;;;;;4154993;28;20838;-58
2022/03/17 08:26:43;;;;;;;45.07;23.63;;;4.70;99.90;;;;;;4156593;28;20666;-56
2022/03/17 08:28:44;;;;;;;47.73;23.33;;;4.70;99.90;;;;;;4154742;28;20323;-54
2022/03/17 08:30:47;;;;;;;44.97;23.27;;;4.70;99.90;;;;;;4156770;28;20341;-56
2022/03/17 08:32:49;;;;;;;49.80;22.97;;;4.70;99.90;;;;;;4155111;28;20278;-56
2022/03/17 08:34:50;;;;;;;39.50;20.87;;;4.80;99.90;;;;;;4156554;28;20321;-56
2022/03/17 08:36:56;;;;;;;39.37;20.17;;;4.90;99.90;;;;;;4155951;28;20661;-59
2022/03/17 08:38:57;;;;;;;35.20;17.20;;;5.00;99.90;;;;;;4155645;28;20823;-56
2022/03/17 08:40:58;;;;;;;29.97;17.37;;;5.00;99.90;;;;;;4155100;28;20306;-53
2022/03/17 08:42:59;;;;;;;35.53;18.67;;;5.10;99.90;;;;;;4156753;28;20336;-59
2022/03/17 08:45:01;;;;;;;38.80;19.73;;;5.10;99.90;;;;;;4154274;28;20278;-56
2022/03/17 08:49:23;;;;;;;32.67;17.15;;;5.20;99.90;;;;;;4155526;28;20296;-59
2022/03/17 08:51:24;;;;;;;25.97;13.20;;;5.30;99.90;;;;;;4156701;28;20033;-57
2022/03/17 08:53:25;;;;;;;23.53;12.20;;;5.60;99.90;;;;;;4154882;28;20267;-58
2022/03/17 08:55:26;;;;;;;28.07;13.63;;;5.80;99.90;;;;;;4155657;28;20345;-58
2022/03/17 08:57:27;;;;;;;25.67;14.10;;;6.00;99.90;;;;;;4154874;28;20372;-59
2022/03/17 08:59:33;;;;;;;23.73;11.30;;;6.20;99.90;;;;;;4156051;28;20320;-59
2022/03/17 09:01:37;;;;;;;23.73;11.83;;;6.20;99.90;;;;;;4156035;28;20817;-58
2022/03/17 09:03:38;;;;;;;25.97;11.83;;;6.20;99.90;;;;;;4154292;28;20378;-52
2022/03/17 09:05:39;;;;;;;19.87;11.13;;;6.20;99.90;;;;;;4155738;28;20282;-58
2022/03/17 09:07:40;;;;;;;22.50;10.97;;;6.20;99.90;;;;;;4154661;28;20332;-56
2022/03/17 09:09:42;;;;;;;23.80;12.10;;;6.20;99.90;;;;;;4156102;28;20297;-60
2022/03/17 09:11:45;;;;;;;19.87;11.10;;;6.30;99.90;;;;;;4154606;28;20321;-58
2022/03/17 09:13:49;;;;;;;33.13;11.27;;;6.40;99.90;;;;;;4154879;28;20357;-54
2022/03/17 09:15:50;;;;;;;24.83;10.53;;;6.40;99.90;;;;;;4154893;28;20267;-56
2022/03/17 09:17:52;;;;;;;18.40;10.10;;;6.30;99.90;;;;;;4156335;28;20297;-54
2022/03/17 09:19:53;;;;;;;19.53;10.20;;;6.20;99.90;;;;;;4153953;28;20622;-53
2022/03/17 09:21:54;;;;;;;20.63;10.57;;;6.20;97.90;;;;;;4138082;28;20342;-56
2022/03/17 09:23:55;;;;;;;19.07;10.23;;;6.20;99.30;;;;;;4153585;28;20053;-56
2022/03/17 09:25:57;;;;;;;20.90;10.63;;;6.30;99.90;;;;;;4158810;28;20263;-57
2022/03/17 09:27:58;;;;;;;19.13;11.17;;;6.30;99.60;;;;;;4156781;28;20274;-54
2022/03/17 09:29:59;;;;;;;20.33;11.97;;;6.20;98.10;;;;;;4158847;28;20890;-58
2022/03/17 09:32:00;;;;;;;19.37;11.23;;;6.30;99.60;;;;;;4158431;28;20259;-58
2022/03/17 09:34:03;;;;;;;18.37;10.43;;;6.20;99.40;;;;;;4158012;28;20267;-59
2022/03/17 09:36:04;;;;;;;18.10;10.70;;;6.20;98.90;;;;;;4158222;28;20267;-56
2022/03/17 09:38:07;;;;;;;20.37;10.70;;;6.30;98.50;;;;;;4157913;28;20305;-58
2022/03/17 09:40:09;;;;;;;18.07;9.67;;;6.50;98.80;;;;;;4159533;28;20587;-58
2022/03/17 09:42:14;;;;;;;19.30;10.43;;;6.60;98.40;;;;;;4156977;28;20739;-58
2022/03/17 09:44:16;;;;;;;21.07;9.70;;;6.60;98.30;;;;;;4157992;28;20290;-59
2022/03/17 09:46:21;;;;;;;24.20;10.80;;;6.50;97.60;;;;;;4157399;28;20290;-60
2022/03/17 09:48:24;;;;;;;20.80;11.23;;;6.50;97.90;;;;;;4158020;28;20286;-56
2022/03/17 09:50:25;;;;;;;20.17;11.23;;;6.40;98.30;;;;;;4157245;28;20722;-58
2022/03/17 09:52:31;;;;;;;21.77;10.97;;;6.40;97.80;;;;;;4158132;28;20041;-56
2022/03/17 09:54:35;;;;;;;21.53;11.33;;;6.30;98.20;;;;;;4157622;28;20355;-56
2022/03/17 09:56:36;;;;;;;20.07;11.53;;;6.40;98.00;;;;;;4158205;28;20283;-59
2022/03/17 09:58:37;;;;;;;21.17;11.03;;;6.30;97.60;;;;;;4156827;28;20283;-58
2022/03/17 10:00:48;;;;;;;18.67;9.90;;;6.40;98.20;;;;;;4158383;28;20056;-58
2022/03/17 10:02:49;;;;;;;22.45;9.43;;;6.50;98.80;;;;;;4156286;28;20749;-57
2022/03/17 10:04:51;;;;;;;16.83;9.67;;;6.50;97.50;;;;;;4157373;28;20104;-56
2022/03/17 10:06:54;;;;;;;21.40;9.80;;;6.70;98.40;;;;;;4157461;28;20095;-58
2022/03/17 10:08:56;;;;;;;14.70;9.10;;;6.80;97.10;;;;;;4158234;28;20467;-57
2022/03/17 10:10:57;;;;;;;18.63;9.50;;;6.90;96.50;;;;;;4157497;28;20616;-58
2022/03/17 10:13:25;;;;;;;22.80;10.17;;;6.80;94.90;;;;;;4156696;28;20087;-53
2022/03/17 10:15:26;;;;;;;19.33;9.47;;;6.80;96.30;;;;;;4156221;28;20486;-59
2022/03/17 10:17:35;;;;;;;17.83;9.00;;;7.00;96.40;;;;;;4157608;28;20041;-56
2022/03/17 10:19:37;;;;;;;17.17;9.40;;;7.10;95.00;;;;;;4158336;28;20033;-58
2022/03/17 10:21:38;;;;;;;12.63;7.77;;;7.10;94.70;;;;;;4158025;28;20049;-52
2022/03/17 10:24:03;;;;;;;16.57;9.67;;;7.00;94.30;;;;;;4156672;28;20831;-52
2022/03/17 10:26:04;;;;;;;17.07;9.77;;;6.80;93.40;;;;;;4156532;28;20109;-57
2022/03/17 10:28:07;;;;;;;16.63;9.23;;;6.60;93.80;;;;;;4156429;28;20432;-58
2022/03/17 10:30:09;;;;;;;18.27;10.17;;;6.40;94.30;;;;;;4154847;28;20777;-59
2022/03/17 10:32:12;;;;;;;19.73;10.23;;;6.20;95.10;;;;;;4157206;28;20068;-54